RJOI/IWA METAR and TAF weather

Enter ICAO airport designator
Station Type Date Time Source
RJOI METAR 2021/02/27 20:55 UTC NOAA

RJOI 272055Z 02013KT 9999 FEW030 SCT120 BKN200 06/M02 A3042 RMK SLP299 T00611017 53003


Station Type Date Time Source
RJOI Decoded METAR 2021/02/27 20:55 UTC NOAA

MCAS IWAKUNI,JAPAN, JA, Japan (RJOI) 34-09N 132-14E 5M
Feb 27, 2021 - 03:55 PM EST / 2021.02.27 2055 UTC
Wind: from the NNE (020 degrees) at 15 MPH (13 KT):0
Visibility: greater than 7 mile(s):0
Sky conditions: mostly cloudy
Temperature: 43.0 F (6.1 C)
Dew Point: 28.9 F (-1.7 C)
Relative Humidity: 57%
Pressure (altimeter): 30.42 in. Hg (1030 hPa)
Pressure tendency: 0.01 inches (0.3 hPa) higher than three hours ago
ob: RJOI 272055Z 02013KT 9999 FEW030 SCT120 BKN200 06/M02 A3042 RMK SLP299 T00611017 53003
cycle: 21

Station Type Date Time Source
RJOI TAF 2021/02/27 21:58 UTC NOAA

TAF RJOI 2721/2821 04010KT 9999 FEW020 SCT025 BKN160 510006 511505 QNH3040INS
FM280200 05010KT 9999 SCT030 BKN140 510006 511505 QNH3032INS
TEMPO 2803/2809 BKN030
BECMG 03008KT 9999 2812/2814 SCT020 BKN050 510006 511007 QNH3025INS T06/2721Z T14/2805Z

Example: see airport list